createdAt,value
2023-10-29T00:01:01.925Z,1.52
2023-10-29T00:03:31.460Z,1.33
2023-10-29T00:05:58.714Z,1.10
2023-10-29T00:08:28.316Z,1.40
2023-10-29T00:10:55.509Z,1.43
2023-10-29T00:13:26.502Z,1.20
2023-10-29T00:15:55.895Z,1.37
2023-10-29T00:18:25.796Z,1.00
2023-10-29T00:20:52.997Z,1.17
2023-10-29T00:23:20.193Z,1.00
2023-10-29T00:25:49.583Z,1.27
2023-10-29T00:28:16.726Z,0.93
2023-10-29T00:30:43.892Z,0.93
2023-10-29T00:33:11.175Z,1.15
2023-10-29T00:35:38.382Z,0.90
2023-10-29T00:38:08.711Z,1.45
2023-10-29T00:40:41.906Z,0.98
2023-10-29T00:43:09.062Z,1.00
2023-10-29T00:45:37.973Z,1.10
2023-10-29T00:48:05.434Z,0.98
2023-10-29T00:50:33.030Z,0.80
2023-10-29T00:53:00.185Z,0.90
2023-10-29T00:55:27.768Z,1.00
2023-10-29T00:57:57.493Z,1.00
2023-10-29T01:00:24.799Z,0.90
2023-10-29T01:02:54.870Z,1.15
2023-10-29T01:05:22.945Z,1.08
2023-10-29T01:07:50.419Z,0.90
2023-10-29T01:10:17.623Z,1.05
2023-10-29T01:12:46.606Z,1.05
2023-10-29T01:15:13.792Z,1.27
2023-10-29T01:17:41.051Z,0.90
2023-10-29T01:20:08.412Z,0.95
2023-10-29T01:22:35.787Z,1.02
2023-10-29T01:25:06.772Z,1.20
2023-10-29T01:27:34.318Z,1.10
2023-10-29T01:30:01.909Z,1.05
2023-10-29T01:32:30.109Z,1.30
2023-10-29T01:34:57.341Z,1.30
2023-10-29T01:37:26.716Z,1.25
2023-10-29T01:39:56.072Z,1.40
2023-10-29T01:42:27.460Z,1.33
2023-10-29T01:44:54.630Z,1.10
2023-10-29T01:47:25.126Z,1.03
2023-10-29T01:49:54.612Z,1.27
2023-10-29T01:52:21.772Z,1.00
2023-10-29T01:54:49.064Z,1.20
2023-10-29T01:57:16.291Z,1.00
2023-10-29T01:59:43.484Z,0.90
2023-10-29T02:02:10.791Z,1.10
2023-10-29T02:04:37.920Z,0.95
2023-10-29T02:07:05.147Z,1.15
2023-10-29T02:09:32.243Z,1.00
2023-10-29T02:11:59.343Z,1.05
2023-10-29T02:14:26.920Z,1.00
2023-10-29T02:16:54.126Z,1.00
2023-10-29T02:19:21.216Z,1.02
2023-10-29T02:21:48.753Z,0.90
2023-10-29T02:24:18.082Z,1.05
2023-10-29T02:26:45.222Z,0.90
2023-10-29T02:29:15.357Z,1.10
2023-10-29T02:31:42.730Z,1.00
2023-10-29T02:34:12.154Z,1.00
2023-10-29T02:36:39.260Z,1.20
2023-10-29T02:39:07.468Z,0.95
2023-10-29T02:41:34.620Z,1.10
2023-10-29T02:44:01.744Z,1.10
2023-10-29T02:46:31.912Z,1.20
2023-10-29T02:48:59.057Z,0.90
2023-10-29T02:51:26.387Z,1.23
2023-10-29T02:53:53.584Z,1.20
2023-10-29T02:56:20.732Z,1.27
2023-10-29T02:58:47.838Z,1.65
2023-10-29T03:01:17.059Z,1.17
2023-10-29T03:03:53.476Z,1.45
2023-10-29T03:06:20.696Z,1.30
2023-10-29T03:08:48.152Z,1.30
2023-10-29T03:11:15.536Z,1.23
2023-10-29T03:13:42.683Z,1.40
2023-10-29T03:16:09.821Z,1.52
2023-10-29T03:18:39.986Z,1.30
2023-10-29T03:21:07.212Z,1.20
2023-10-29T03:23:37.203Z,1.10
2023-10-29T03:26:04.555Z,1.10
2023-10-29T03:28:31.780Z,0.98
2023-10-29T03:30:58.979Z,1.02
2023-10-29T03:33:26.122Z,1.17
2023-10-29T03:35:53.375Z,1.20
2023-10-29T03:38:20.552Z,1.30
2023-10-29T03:40:47.681Z,1.20
2023-10-29T03:43:14.728Z,1.38
2023-10-29T03:45:44.287Z,1.15
2023-10-29T03:48:13.377Z,1.38
2023-10-29T03:50:43.816Z,1.20
2023-10-29T03:53:10.958Z,1.10
2023-10-29T03:55:38.389Z,1.10
2023-10-29T03:58:08.591Z,1.00
2023-10-29T04:00:38.205Z,1.30
2023-10-29T04:03:10.808Z,1.10
2023-10-29T04:05:38.144Z,1.33
2023-10-29T04:08:07.728Z,1.30
2023-10-29T04:10:35.559Z,1.30
2023-10-29T04:13:02.692Z,1.40
2023-10-29T04:15:29.811Z,1.40
2023-10-29T04:17:57.040Z,1.40
2023-10-29T04:20:24.411Z,1.40
2023-10-29T04:22:51.578Z,1.27
2023-10-29T04:25:18.704Z,1.00
2023-10-29T04:27:48.952Z,1.30
2023-10-29T04:30:19.251Z,1.10
2023-10-29T04:32:52.493Z,1.10
2023-10-29T04:35:19.811Z,1.10
2023-10-29T04:37:47.109Z,1.10
2023-10-29T04:40:17.145Z,1.00
2023-10-29T04:42:44.311Z,1.10
2023-10-29T04:45:12.375Z,1.08
2023-10-29T04:47:42.322Z,1.00
2023-10-29T04:50:11.785Z,1.00
2023-10-29T04:52:39.470Z,0.93
2023-10-29T04:55:06.900Z,1.00
2023-10-29T04:57:34.307Z,1.00
2023-10-29T05:00:01.872Z,1.40
2023-10-29T05:02:30.482Z,1.25
2023-10-29T05:04:57.733Z,1.20
2023-10-29T05:07:24.985Z,1.25
2023-10-29T05:09:52.138Z,1.25
2023-10-29T05:12:22.453Z,1.40
2023-10-29T05:14:52.418Z,1.30
2023-10-29T05:17:19.692Z,1.10
2023-10-29T05:19:46.820Z,1.50
2023-10-29T05:22:14.048Z,1.50
2023-10-29T05:24:41.237Z,1.60
2023-10-29T05:27:08.872Z,1.23
2023-10-29T05:29:36.047Z,1.20
2023-10-29T05:32:04.334Z,1.40
2023-10-29T05:34:31.493Z,1.30
2023-10-29T05:36:58.713Z,1.83
2023-10-29T05:39:25.840Z,1.30
2023-10-29T05:41:52.973Z,1.30
2023-10-29T05:44:23.232Z,1.58
2023-10-29T05:46:50.428Z,1.30
2023-10-29T05:49:17.575Z,1.20
2023-10-29T05:51:44.907Z,1.50
2023-10-29T05:54:12.131Z,1.30
2023-10-29T05:56:42.270Z,1.70
2023-10-29T05:59:09.420Z,1.20
2023-10-29T06:01:38.677Z,1.38
2023-10-29T06:04:06.590Z,1.35
2023-10-29T06:06:34.222Z,1.38
2023-10-29T06:09:09.675Z,1.58
2023-10-29T06:11:44.614Z,1.40
2023-10-29T06:14:11.990Z,1.38
2023-10-29T06:16:39.134Z,1.40
2023-10-29T06:19:06.395Z,1.60
2023-10-29T06:21:34.111Z,1.30
2023-10-29T06:24:01.359Z,1.40
2023-10-29T06:26:28.544Z,1.50
2023-10-29T06:28:55.760Z,1.50
2023-10-29T06:31:29.362Z,1.60
2023-10-29T06:33:56.541Z,1.80
2023-10-29T06:36:26.856Z,1.50
2023-10-29T06:39:00.342Z,1.38
2023-10-29T06:41:29.907Z,1.90
2023-10-29T06:43:57.038Z,1.60
2023-10-29T06:46:26.983Z,1.42
2023-10-29T06:48:56.272Z,1.33
2023-10-29T06:51:23.370Z,1.40
2023-10-29T06:53:50.535Z,1.27
2023-10-29T06:56:17.675Z,1.30
2023-10-29T06:58:45.027Z,1.20
2023-10-29T07:01:12.205Z,1.05
2023-10-29T07:03:44.010Z,1.10
2023-10-29T07:06:12.495Z,0.90
2023-10-29T07:08:39.988Z,0.90
2023-10-29T07:11:07.529Z,1.20
2023-10-29T07:13:36.130Z,1.02
2023-10-29T07:16:06.660Z,0.95
2023-10-29T07:18:33.932Z,1.08
2023-10-29T07:21:01.682Z,1.02
2023-10-29T07:23:28.901Z,1.33
2023-10-29T07:25:56.050Z,0.90
2023-10-29T07:28:23.477Z,1.00
2023-10-29T07:30:50.847Z,1.10
2023-10-29T07:33:18.196Z,0.90
2023-10-29T07:35:46.376Z,1.15
2023-10-29T07:38:13.600Z,0.90
2023-10-29T07:40:40.829Z,0.95
2023-10-29T07:43:08.386Z,0.90
2023-10-29T07:45:35.578Z,0.80
2023-10-29T07:48:02.807Z,0.93
2023-10-29T07:50:31.826Z,0.85
2023-10-29T07:52:58.962Z,1.00
2023-10-29T07:55:26.097Z,0.90
2023-10-29T07:57:56.058Z,1.13
2023-10-29T08:00:23.419Z,1.00
2023-10-29T08:02:50.590Z,1.30
2023-10-29T08:05:17.859Z,1.20
2023-10-29T08:07:47.139Z,1.50
2023-10-29T08:10:14.260Z,1.17
2023-10-29T08:12:41.381Z,1.20
2023-10-29T08:15:08.841Z,1.10
2023-10-29T08:17:36.049Z,1.10
2023-10-29T08:20:03.733Z,1.10
2023-10-29T08:22:31.114Z,1.00
2023-10-29T08:24:58.468Z,0.90
2023-10-29T08:27:25.589Z,1.05
2023-10-29T08:29:52.745Z,0.80
2023-10-29T08:32:19.964Z,1.07
2023-10-29T08:34:47.307Z,0.97
2023-10-29T08:37:15.073Z,0.90
2023-10-29T08:39:42.212Z,1.30
2023-10-29T08:42:09.420Z,1.00
2023-10-29T08:44:36.960Z,1.02
2023-10-29T08:47:04.240Z,1.20
2023-10-29T08:49:31.460Z,0.98
2023-10-29T08:51:58.616Z,1.10
2023-10-29T08:54:25.784Z,0.90
2023-10-29T08:56:56.158Z,0.90
2023-10-29T08:59:23.420Z,1.10
2023-10-29T09:01:50.527Z,0.93
2023-10-29T09:04:17.814Z,0.90
2023-10-29T09:06:45.321Z,0.90
2023-10-29T09:09:16.074Z,0.70
2023-10-29T09:11:45.535Z,1.05
2023-10-29T09:14:14.372Z,0.90
2023-10-29T09:16:42.060Z,0.70
2023-10-29T09:19:09.291Z,0.88
2023-10-29T09:21:36.427Z,1.00
2023-10-29T09:24:03.933Z,1.00
2023-10-29T09:26:34.913Z,0.90
2023-10-29T09:29:02.059Z,0.93
2023-10-29T09:31:29.240Z,1.00
2023-10-29T09:33:56.449Z,0.80
2023-10-29T09:36:23.657Z,1.02
2023-10-29T09:38:50.829Z,0.87
2023-10-29T09:41:21.472Z,1.10
2023-10-29T09:43:48.725Z,1.02
2023-10-29T09:46:15.883Z,0.93
2023-10-29T09:48:48.069Z,1.60
2023-10-29T09:51:16.714Z,1.08
2023-10-29T09:53:44.332Z,1.30
2023-10-29T09:56:11.532Z,1.10
2023-10-29T09:58:39.846Z,0.93
2023-10-29T10:01:07.242Z,0.90
2023-10-29T10:03:34.691Z,1.00
2023-10-29T10:06:02.522Z,0.80
2023-10-29T10:08:30.159Z,1.00
2023-10-29T10:10:58.100Z,0.80
2023-10-29T10:13:42.604Z,0.90
2023-10-29T10:16:11.521Z,1.03
2023-10-29T10:18:53.869Z,0.77
2023-10-29T10:21:25.241Z,0.80
2023-10-29T10:23:56.863Z,1.10
2023-10-29T10:26:36.619Z,1.10
2023-10-29T10:29:08.306Z,0.90
2023-10-29T10:31:36.769Z,0.90
2023-10-29T10:34:17.409Z,0.90
2023-10-29T10:36:50.219Z,0.80
2023-10-29T10:39:22.297Z,0.90
2023-10-29T10:41:50.832Z,0.90
2023-10-29T10:44:20.099Z,1.02
2023-10-29T10:46:50.066Z,1.00
2023-10-29T10:49:17.838Z,0.90
2023-10-29T10:51:45.907Z,0.90
2023-10-29T10:54:18.360Z,0.90
2023-10-29T10:56:46.264Z,0.90
2023-10-29T10:59:14.141Z,0.90
2023-10-29T11:01:41.530Z,0.98
2023-10-29T11:04:11.877Z,0.90
2023-10-29T11:06:40.123Z,1.05
2023-10-29T11:09:13.440Z,0.90
2023-10-29T11:11:44.398Z,0.90
2023-10-29T11:14:18.943Z,1.25
2023-10-29T11:16:47.206Z,1.20
2023-10-29T11:19:32.795Z,1.20
2023-10-29T11:22:15.380Z,1.10
2023-10-29T11:24:42.774Z,1.20
2023-10-29T11:27:28.373Z,1.05
2023-10-29T11:30:11.283Z,1.20
2023-10-29T11:32:38.462Z,1.40
2023-10-29T11:35:21.618Z,1.30
2023-10-29T11:37:49.980Z,1.00
2023-10-29T11:40:37.980Z,1.05
2023-10-29T11:43:18.710Z,0.93
2023-10-29T11:45:55.635Z,0.80
2023-10-29T11:48:23.039Z,0.75
2023-10-29T11:51:10.149Z,0.90
2023-10-29T11:53:37.908Z,1.73
2023-10-29T11:56:07.190Z,1.10
2023-10-29T11:58:34.538Z,0.80
2023-10-29T12:01:01.654Z,0.93
2023-10-29T12:03:30.802Z,0.80
2023-10-29T12:05:58.184Z,0.70
2023-10-29T12:08:27.240Z,0.80
2023-10-29T12:10:57.954Z,0.80
2023-10-29T12:13:25.144Z,0.90
2023-10-29T12:15:59.440Z,0.93
2023-10-29T12:18:27.188Z,1.15
2023-10-29T12:21:05.284Z,1.23
2023-10-29T12:23:32.819Z,1.40
2023-10-29T12:26:02.786Z,1.60
2023-10-29T12:28:30.010Z,1.42
2023-10-29T12:30:59.121Z,1.40
2023-10-29T12:33:27.547Z,1.65
2023-10-29T12:36:02.288Z,1.60
2023-10-29T12:38:29.541Z,1.55
2023-10-29T12:41:09.516Z,1.48
2023-10-29T12:43:43.509Z,1.45
2023-10-29T12:46:12.163Z,1.45
2023-10-29T12:49:05.867Z,1.33
2023-10-29T12:51:33.972Z,1.05
2023-10-29T12:54:13.627Z,0.90
2023-10-29T12:56:52.972Z,1.00
2023-10-29T12:59:23.717Z,1.10
2023-10-29T13:01:58.396Z,1.10
2023-10-29T13:04:26.099Z,1.17
2023-10-29T13:06:57.150Z,1.05
2023-10-29T13:09:26.083Z,1.45
2023-10-29T13:11:53.980Z,1.48
2023-10-29T13:14:23.470Z,1.00
2023-10-29T13:16:54.488Z,1.17
2023-10-29T13:19:22.299Z,1.00
2023-10-29T13:21:53.415Z,1.20
2023-10-29T13:24:21.372Z,2.53
2023-10-29T13:26:48.768Z,3.78
2023-10-29T13:29:16.387Z,2.53
2023-10-29T13:31:44.380Z,2.00
2023-10-29T13:34:11.543Z,2.10
2023-10-29T13:36:38.803Z,1.80
2023-10-29T13:39:20.250Z,1.27
2023-10-29T13:41:49.336Z,1.33
2023-10-29T13:44:18.102Z,2.20
2023-10-29T13:46:45.570Z,1.60
2023-10-29T13:49:12.660Z,1.27
2023-10-29T13:51:40.577Z,0.90
2023-10-29T13:54:09.815Z,1.03
2023-10-29T13:56:36.987Z,1.10
2023-10-29T13:59:04.240Z,1.40
2023-10-29T14:01:31.789Z,1.02
2023-10-29T14:04:00.130Z,1.10
2023-10-29T14:06:27.935Z,0.80
2023-10-29T14:08:55.097Z,0.88
2023-10-29T14:11:22.315Z,0.82
2023-10-29T14:13:52.495Z,1.15
2023-10-29T14:16:19.787Z,1.00
2023-10-29T14:18:49.850Z,0.85
2023-10-29T14:21:19.237Z,1.10
2023-10-29T14:23:46.445Z,0.70
2023-10-29T14:26:13.563Z,0.70
2023-10-29T14:28:40.656Z,0.50
2023-10-29T14:31:07.809Z,0.57
2023-10-29T14:33:40.372Z,0.50
2023-10-29T14:36:07.751Z,0.50
2023-10-29T14:38:34.952Z,0.60
2023-10-29T14:41:02.138Z,0.60
2023-10-29T14:43:29.276Z,0.40
2023-10-29T14:45:57.008Z,0.60
2023-10-29T14:48:24.136Z,0.73
2023-10-29T14:50:53.115Z,0.57
2023-10-29T14:53:21.305Z,0.60
2023-10-29T14:55:51.365Z,0.40
2023-10-29T14:58:18.519Z,0.40
2023-10-29T15:00:46.108Z,0.40
2023-10-29T15:03:13.693Z,0.40
2023-10-29T15:05:41.746Z,0.37
2023-10-29T15:08:08.985Z,0.38
2023-10-29T15:10:36.345Z,0.35
2023-10-29T15:13:05.167Z,0.50
2023-10-29T15:15:33.664Z,0.43
2023-10-29T15:18:00.960Z,0.50
2023-10-29T15:20:29.094Z,0.50
2023-10-29T15:22:56.712Z,0.40
2023-10-29T15:25:24.450Z,0.50
2023-10-29T15:27:51.539Z,0.60
2023-10-29T15:30:18.922Z,0.47
2023-10-29T15:32:46.182Z,0.70
2023-10-29T15:35:13.333Z,0.80
2023-10-29T15:37:42.096Z,0.80
2023-10-29T15:40:09.507Z,0.82
2023-10-29T15:42:36.652Z,0.80
2023-10-29T15:45:03.890Z,0.50
2023-10-29T15:47:31.104Z,0.60
2023-10-29T15:49:58.885Z,0.40
2023-10-29T15:52:25.969Z,0.60
2023-10-29T15:54:53.231Z,0.40
2023-10-29T15:57:22.465Z,0.43
2023-10-29T15:59:55.375Z,0.50
2023-10-29T16:02:22.943Z,0.60
2023-10-29T16:04:50.401Z,0.30
2023-10-29T16:07:17.872Z,0.40
2023-10-29T16:09:46.120Z,0.43
2023-10-29T16:12:13.462Z,0.40
2023-10-29T16:14:41.000Z,0.50
2023-10-29T16:17:08.739Z,0.52
2023-10-29T16:19:36.004Z,0.50
2023-10-29T16:22:06.006Z,0.70
2023-10-29T16:24:36.263Z,0.60
2023-10-29T16:27:03.542Z,0.60
2023-10-29T16:29:30.640Z,0.50
2023-10-29T16:31:59.758Z,0.50
2023-10-29T16:34:27.000Z,0.40
2023-10-29T16:36:54.251Z,0.43
2023-10-29T16:39:21.452Z,0.40
2023-10-29T16:41:48.711Z,0.50
2023-10-29T16:44:15.982Z,0.40
2023-10-29T16:46:43.162Z,0.40
2023-10-29T16:49:13.094Z,0.30
2023-10-29T16:51:40.370Z,0.30
2023-10-29T16:54:07.596Z,0.40
2023-10-29T16:56:34.800Z,0.40
2023-10-29T16:59:01.979Z,0.43
2023-10-29T17:01:29.175Z,0.40
2023-10-29T17:03:56.696Z,0.40
2023-10-29T17:06:24.013Z,0.45
2023-10-29T17:08:51.701Z,0.45
2023-10-29T17:11:18.935Z,0.50
2023-10-29T17:13:46.712Z,0.40
2023-10-29T17:16:16.742Z,0.50
2023-10-29T17:18:46.613Z,0.70
2023-10-29T17:21:15.330Z,0.50
2023-10-29T17:23:46.082Z,0.43
2023-10-29T17:26:14.499Z,0.50
2023-10-29T17:28:45.471Z,0.70
2023-10-29T17:31:15.622Z,0.50
2023-10-29T17:33:43.015Z,0.60
2023-10-29T17:36:14.374Z,0.52
2023-10-29T17:38:41.870Z,0.40
2023-10-29T17:41:15.254Z,0.38
2023-10-29T17:43:46.083Z,0.35
2023-10-29T17:46:27.712Z,0.40
2023-10-29T17:48:54.812Z,0.40
2023-10-29T17:51:22.090Z,0.40
2023-10-29T17:53:51.227Z,0.40
2023-10-29T17:56:18.443Z,0.30
2023-10-29T17:58:46.958Z,0.40
2023-10-29T18:01:14.145Z,0.50
2023-10-29T18:03:41.533Z,0.60
2023-10-29T18:06:23.333Z,0.63
2023-10-29T18:08:51.132Z,0.60
2023-10-29T18:11:19.031Z,0.70
2023-10-29T18:13:46.892Z,0.90
2023-10-29T18:16:15.028Z,0.80
2023-10-29T18:18:44.462Z,0.77
2023-10-29T18:21:11.681Z,1.00
2023-10-29T18:23:38.895Z,0.80
2023-10-29T18:26:06.265Z,0.80
2023-10-29T18:28:34.106Z,0.85
2023-10-29T18:31:05.430Z,0.90
2023-10-29T18:33:32.900Z,0.70
2023-10-29T18:36:10.299Z,0.63
2023-10-29T18:38:40.881Z,0.70
2023-10-29T18:41:14.641Z,0.45
2023-10-29T18:43:48.692Z,0.40
2023-10-29T18:46:17.622Z,0.40
2023-10-29T18:48:50.508Z,0.38
2023-10-29T18:51:17.881Z,0.52
2023-10-29T18:53:46.070Z,0.30
2023-10-29T18:56:13.152Z,0.35
2023-10-29T18:58:42.196Z,0.35
2023-10-29T19:01:12.209Z,0.32
2023-10-29T19:03:40.025Z,0.38
2023-10-29T19:06:08.406Z,0.20
2023-10-29T19:08:36.090Z,0.55
2023-10-29T19:11:05.180Z,0.40
2023-10-29T19:13:34.148Z,0.30
2023-10-29T19:16:03.021Z,0.47
2023-10-29T19:18:30.320Z,0.28
2023-10-29T19:20:57.529Z,0.40
2023-10-29T19:23:25.542Z,0.28
2023-10-29T19:25:52.727Z,0.30
2023-10-29T19:28:19.844Z,0.40
2023-10-29T19:31:04.423Z,0.30
2023-10-29T19:33:35.236Z,0.30
2023-10-29T19:36:02.563Z,0.35
2023-10-29T19:38:29.764Z,0.70
2023-10-29T19:40:59.678Z,0.63
2023-10-29T19:43:28.558Z,1.00
2023-10-29T19:45:59.316Z,0.70
2023-10-29T19:48:26.986Z,1.00
2023-10-29T19:51:00.986Z,0.80
2023-10-29T19:53:28.790Z,1.00
2023-10-29T19:55:56.748Z,0.90
2023-10-29T19:58:24.151Z,1.08
2023-10-29T20:00:52.721Z,0.90
2023-10-29T20:03:20.081Z,0.90
2023-10-29T20:05:47.289Z,1.13
2023-10-29T20:08:16.815Z,0.95
2023-10-29T20:10:45.002Z,0.93
2023-10-29T20:13:12.155Z,1.00
2023-10-29T20:15:39.582Z,0.80
2023-10-29T20:18:06.975Z,0.70
2023-10-29T20:20:36.501Z,0.80
2023-10-29T20:23:05.151Z,0.80
2023-10-29T20:25:32.399Z,0.83
2023-10-29T20:27:59.558Z,1.00
2023-10-29T20:30:26.765Z,0.85
2023-10-29T20:32:54.453Z,0.93
2023-10-29T20:35:21.595Z,1.00
2023-10-29T20:37:48.870Z,0.80
2023-10-29T20:40:18.253Z,0.90
2023-10-29T20:42:45.461Z,0.88
2023-10-29T20:45:12.674Z,0.85
2023-10-29T20:47:39.838Z,1.00
2023-10-29T20:50:09.886Z,0.83
2023-10-29T20:52:37.162Z,0.85
2023-10-29T20:55:04.894Z,0.90
2023-10-29T20:57:32.091Z,1.00
2023-10-29T20:59:59.862Z,0.80
2023-10-29T21:02:27.085Z,0.68
2023-10-29T21:04:54.493Z,0.85
2023-10-29T21:07:21.637Z,0.77
2023-10-29T21:09:49.084Z,0.80
2023-10-29T21:12:16.629Z,0.80
2023-10-29T21:14:43.832Z,0.70
2023-10-29T21:17:10.984Z,0.70
2023-10-29T21:19:41.251Z,1.07
2023-10-29T21:22:08.425Z,1.20
2023-10-29T21:24:35.573Z,1.20
2023-10-29T21:27:02.780Z,1.60
2023-10-29T21:29:32.897Z,1.23
2023-10-29T21:32:00.052Z,1.65
2023-10-29T21:34:29.445Z,1.30
2023-10-29T21:36:56.541Z,1.30
2023-10-29T21:39:23.876Z,1.30
2023-10-29T21:41:58.616Z,1.20
2023-10-29T21:44:25.743Z,1.27
2023-10-29T21:46:52.984Z,1.10
2023-10-29T21:49:20.135Z,1.10
2023-10-29T21:51:47.282Z,1.20
2023-10-29T21:54:14.533Z,1.10
2023-10-29T21:56:41.695Z,1.30
2023-10-29T21:59:11.635Z,1.20
2023-10-29T22:01:38.753Z,1.50
2023-10-29T22:04:05.996Z,1.10
2023-10-29T22:06:33.918Z,1.30
2023-10-29T22:09:03.910Z,1.10
2023-10-29T22:11:33.835Z,1.10
2023-10-29T22:14:00.993Z,1.00
2023-10-29T22:16:30.481Z,0.90
2023-10-29T22:18:57.614Z,1.10
2023-10-29T22:21:24.838Z,1.20
2023-10-29T22:23:52.554Z,1.03
2023-10-29T22:26:19.749Z,1.30
2023-10-29T22:28:46.813Z,1.10
2023-10-29T22:31:13.925Z,1.10
2023-10-29T22:33:43.067Z,1.05
2023-10-29T22:36:13.356Z,1.20
2023-10-29T22:38:40.527Z,1.00
2023-10-29T22:41:08.859Z,1.20
2023-10-29T22:43:36.671Z,1.33
2023-10-29T22:46:04.241Z,1.20
2023-10-29T22:48:31.512Z,1.40
2023-10-29T22:51:01.845Z,1.20
2023-10-29T22:53:31.785Z,1.00
2023-10-29T22:56:00.967Z,1.17
2023-10-29T22:58:31.305Z,1.55
2023-10-29T23:00:58.934Z,1.27
2023-10-29T23:03:26.711Z,1.30
2023-10-29T23:05:53.958Z,1.35
2023-10-29T23:08:21.139Z,0.95
2023-10-29T23:10:48.673Z,1.00
2023-10-29T23:13:18.523Z,0.98
2023-10-29T23:15:45.680Z,1.20
2023-10-29T23:18:12.939Z,0.87
2023-10-29T23:20:40.158Z,1.10
2023-10-29T23:23:10.970Z,1.40
2023-10-29T23:25:40.265Z,1.30
2023-10-29T23:28:12.480Z,1.30
2023-10-29T23:30:42.000Z,1.00
2023-10-29T23:33:11.098Z,1.00
2023-10-29T23:35:38.201Z,1.00
2023-10-29T23:38:07.395Z,1.05
2023-10-29T23:40:34.695Z,1.20
2023-10-29T23:43:04.917Z,1.27
2023-10-29T23:45:37.063Z,1.20
2023-10-29T23:48:04.344Z,1.50
2023-10-29T23:50:31.505Z,1.50
2023-10-29T23:52:58.591Z,1.67
2023-10-29T23:55:25.760Z,1.52
2023-10-29T23:57:52.873Z,1.50
